Portada
METAR-TAF:

METAR-TAF

Aeropuertos :

Dyersburg, Tennessee, Estados Unidos

latitud: 36-00N, longitud: 089-24W, altitud: 103 m

Observación

El informe se hizo hace 17 minutos, a las 11:56 UTC
Viento 16 kt del norte-noreste con ráfagas de 20 kt
Temperatura 4°C
Humedad 65%
Presión 1031 hPa
Visibilidad: 16.1 km
Nubes dispersas a una altura de 4200 ft
Cielo nuboso a una altura de 5000 ft
lluvia ligera

METAR: KDYR 201156Z AUTO 02016G20KT 10SM -RA SCT042 BKN050 04/M02 A3045 RMK AO2 RAB56 SLP319 6//// 7//// T00391022 10056 20039 53015 PNO $

Hora: 06:13 (12:13 UTC)


TAF: falta

Observaciones y pronósticos meteorológicos de más de 4000 aeropuertos (mensajes METAR y TAF).

Los puntos amarillos y rojos representan las estaciones disponibles.

Ponga el ratón en el punto deseado para ver el nombre de la estación.

Haga clic para ver las observaciones y los pronósticos meteorológicos.

Para cambiar el mapa : haga clic en los botones verdes con una cruz de color negro para hacer un zoom, en el botón verde con un guión para alejar o en las flechas verdes para mapas adyacentes.


METAR-TAF: